sensor_id;sensor_type;location;lat;lon;timestamp;pressure;altitude;pressure_sealevel;temperature;humidity
59787;BME280;45672;51.612;5.536;2023-05-12T00:00:22;101426.50;;;12.32;100.00
59787;BME280;45672;51.612;5.536;2023-05-12T00:02:48;101419.88;;;12.36;100.00
59787;BME280;45672;51.612;5.536;2023-05-12T00:05:13;101416.38;;;12.36;100.00
59787;BME280;45672;51.612;5.536;2023-05-12T00:07:38;101413.53;;;12.37;100.00
59787;BME280;45672;51.612;5.536;2023-05-12T00:10:04;101419.44;;;12.41;100.00
59787;BME280;45672;51.612;5.536;2023-05-12T00:12:30;101421.72;;;12.36;100.00
59787;BME280;45672;51.612;5.536;2023-05-12T00:14:56;101413.03;;;12.34;100.00
59787;BME280;45672;51.612;5.536;2023-05-12T00:17:21;101417.91;;;12.38;100.00
59787;BME280;45672;51.612;5.536;2023-05-12T00:19:46;101412.72;;;12.37;100.00
59787;BME280;45672;51.612;5.536;2023-05-12T00:22:12;101412.56;;;12.38;100.00
59787;BME280;45672;51.612;5.536;2023-05-12T00:24:39;101410.41;;;12.42;100.00
59787;BME280;45672;51.612;5.536;2023-05-12T00:27:05;101410.41;;;12.42;100.00
59787;BME280;45672;51.612;5.536;2023-05-12T00:29:31;101415.06;;;12.40;100.00
59787;BME280;45672;51.612;5.536;2023-05-12T00:31:56;101405.22;;;12.40;100.00
59787;BME280;45672;51.612;5.536;2023-05-12T00:34:22;101407.22;;;12.38;100.00
59787;BME280;45672;51.612;5.536;2023-05-12T00:36:47;101415.47;;;12.27;100.00
59787;BME280;45672;51.612;5.536;2023-05-12T00:39:12;101406.63;;;12.27;100.00
59787;BME280;45672;51.612;5.536;2023-05-12T00:41:38;101407.91;;;12.22;100.00
59787;BME280;45672;51.612;5.536;2023-05-12T00:44:03;101404.31;;;12.14;100.00
59787;BME280;45672;51.612;5.536;2023-05-12T00:46:28;101407.84;;;12.14;100.00
59787;BME280;45672;51.612;5.536;2023-05-12T00:48:54;101401.50;;;12.15;100.00
59787;BME280;45672;51.612;5.536;2023-05-12T00:51:19;101405.84;;;12.16;100.00
59787;BME280;45672;51.612;5.536;2023-05-12T00:53:47;101394.84;;;12.19;100.00
59787;BME280;45672;51.612;5.536;2023-05-12T00:56:12;101399.75;;;12.24;100.00
59787;BME280;45672;51.612;5.536;2023-05-12T00:58:38;101399.59;;;12.26;100.00
59787;BME280;45672;51.612;5.536;2023-05-12T01:01:03;101395.19;;;12.34;100.00
59787;BME280;45672;51.612;5.536;2023-05-12T01:03:28;101386.19;;;12.35;100.00
59787;BME280;45672;51.612;5.536;2023-05-12T01:08:42;101389.44;;;12.47;100.00
59787;BME280;45672;51.612;5.536;2023-05-12T01:11:08;101391.72;;;12.42;100.00
59787;BME280;45672;51.612;5.536;2023-05-12T01:13:33;101387.19;;;12.34;100.00
59787;BME280;45672;51.612;5.536;2023-05-12T01:15:59;101382.66;;;12.35;100.00
59787;BME280;45672;51.612;5.536;2023-05-12T01:18:27;101385.97;;;12.29;100.00
59787;BME280;45672;51.612;5.536;2023-05-12T01:20:54;101382.75;;;12.25;100.00
59787;BME280;45672;51.612;5.536;2023-05-12T01:23:23;101380.03;;;12.17;100.00
59787;BME280;45672;51.612;5.536;2023-05-12T01:25:51;101387.47;;;12.13;100.00
59787;BME280;45672;51.612;5.536;2023-05-12T01:28:17;101382.44;;;12.10;100.00
59787;BME280;45672;51.612;5.536;2023-05-12T01:30:42;101375.81;;;12.14;100.00
59787;BME280;45672;51.612;5.536;2023-05-12T01:33:08;101378.03;;;12.19;100.00
59787;BME280;45672;51.612;5.536;2023-05-12T01:35:33;101373.66;;;12.18;100.00
59787;BME280;45672;51.612;5.536;2023-05-12T01:37:59;101368.41;;;12.08;100.00
59787;BME280;45672;51.612;5.536;2023-05-12T01:40:24;101378.00;;;12.01;100.00
59787;BME280;45672;51.612;5.536;2023-05-12T01:42:50;101376.94;;;11.94;100.00
59787;BME280;45672;51.612;5.536;2023-05-12T01:45:16;101382.84;;;11.87;100.00
59787;BME280;45672;51.612;5.536;2023-05-12T01:47:41;101372.41;;;11.76;100.00
59787;BME280;45672;51.612;5.536;2023-05-12T01:50:06;101367.06;;;11.76;100.00
59787;BME280;45672;51.612;5.536;2023-05-12T01:52:32;101371.06;;;11.62;100.00
59787;BME280;45672;51.612;5.536;2023-05-12T01:54:57;101369.00;;;11.56;100.00
59787;BME280;45672;51.612;5.536;2023-05-12T01:57:22;101361.47;;;11.51;100.00
59787;BME280;45672;51.612;5.536;2023-05-12T01:59:48;101362.28;;;11.52;100.00
59787;BME280;45672;51.612;5.536;2023-05-12T02:02:13;101357.78;;;11.52;100.00
59787;BME280;45672;51.612;5.536;2023-05-12T02:04:39;101360.75;;;11.49;100.00
59787;BME280;45672;51.612;5.536;2023-05-12T02:07:04;101355.44;;;11.49;100.00
59787;BME280;45672;51.612;5.536;2023-05-12T02:09:29;101357.78;;;11.52;100.00
59787;BME280;45672;51.612;5.536;2023-05-12T02:11:55;101359.03;;;11.58;100.00
59787;BME280;45672;51.612;5.536;2023-05-12T02:14:20;101356.06;;;11.61;100.00
59787;BME280;45672;51.612;5.536;2023-05-12T02:16:45;101357.38;;;11.57;100.00
59787;BME280;45672;51.612;5.536;2023-05-12T02:19:14;101354.44;;;11.50;100.00
59787;BME280;45672;51.612;5.536;2023-05-12T02:21:39;101353.75;;;11.48;100.00
59787;BME280;45672;51.612;5.536;2023-05-12T02:24:05;101347.59;;;11.48;100.00
59787;BME280;45672;51.612;5.536;2023-05-12T02:26:30;101338.50;;;11.41;100.00
59787;BME280;45672;51.612;5.536;2023-05-12T02:28:55;101346.19;;;11.44;100.00
59787;BME280;45672;51.612;5.536;2023-05-12T02:31:21;101344.78;;;11.49;100.00
59787;BME280;45672;51.612;5.536;2023-05-12T02:33:46;101347.44;;;11.49;100.00
59787;BME280;45672;51.612;5.536;2023-05-12T02:36:12;101334.13;;;11.49;100.00
59787;BME280;45672;51.612;5.536;2023-05-12T02:38:37;101338.63;;;11.49;100.00
59787;BME280;45672;51.612;5.536;2023-05-12T02:41:04;101333.84;;;11.43;100.00
59787;BME280;45672;51.612;5.536;2023-05-12T02:43:29;101330.41;;;11.32;100.00
59787;BME280;45672;51.612;5.536;2023-05-12T02:45:55;101325.25;;;11.31;100.00
59787;BME280;45672;51.612;5.536;2023-05-12T02:48:20;101323.97;;;11.35;100.00
59787;BME280;45672;51.612;5.536;2023-05-12T02:50:45;101322.28;;;11.34;100.00
59787;BME280;45672;51.612;5.536;2023-05-12T02:53:11;101318.94;;;11.32;100.00
59787;BME280;45672;51.612;5.536;2023-05-12T02:55:36;101324.09;;;11.33;100.00
59787;BME280;45672;51.612;5.536;2023-05-12T02:58:02;101316.63;;;11.37;100.00
59787;BME280;45672;51.612;5.536;2023-05-12T03:00:27;101320.25;;;11.46;100.00
59787;BME280;45672;51.612;5.536;2023-05-12T03:02:53;101312.53;;;11.43;100.00
59787;BME280;45672;51.612;5.536;2023-05-12T03:05:18;101315.66;;;11.38;100.00
59787;BME280;45672;51.612;5.536;2023-05-12T03:07:43;101312.16;;;11.37;100.00
59787;BME280;45672;51.612;5.536;2023-05-12T03:10:09;101306.13;;;11.35;100.00
59787;BME280;45672;51.612;5.536;2023-05-12T03:12:35;101315.41;;;11.31;100.00
59787;BME280;45672;51.612;5.536;2023-05-12T03:15:00;101309.56;;;11.28;100.00
59787;BME280;45672;51.612;5.536;2023-05-12T03:17:25;101313.34;;;11.25;100.00
59787;BME280;45672;51.612;5.536;2023-05-12T03:19:51;101308.16;;;11.24;100.00
59787;BME280;45672;51.612;5.536;2023-05-12T03:22:16;101303.53;;;11.26;100.00
59787;BME280;45672;51.612;5.536;2023-05-12T03:24:41;101301.72;;;11.26;100.00
59787;BME280;45672;51.612;5.536;2023-05-12T03:27:07;101305.34;;;11.25;100.00
59787;BME280;45672;51.612;5.536;2023-05-12T03:29:32;101304.22;;;11.28;100.00
59787;BME280;45672;51.612;5.536;2023-05-12T03:31:57;101302.38;;;11.28;100.00
59787;BME280;45672;51.612;5.536;2023-05-12T03:34:23;101301.97;;;11.33;100.00
59787;BME280;45672;51.612;5.536;2023-05-12T03:36:48;101298.00;;;11.37;100.00
59787;BME280;45672;51.612;5.536;2023-05-12T03:39:13;101295.06;;;11.40;100.00
59787;BME280;45672;51.612;5.536;2023-05-12T03:41:39;101292.53;;;11.38;100.00
59787;BME280;45672;51.612;5.536;2023-05-12T03:44:04;101294.66;;;11.35;100.00
59787;BME280;45672;51.612;5.536;2023-05-12T03:46:32;101292.97;;;11.34;100.00
59787;BME280;45672;51.612;5.536;2023-05-12T03:48:57;101287.69;;;11.24;100.00
59787;BME280;45672;51.612;5.536;2023-05-12T03:51:23;101288.16;;;11.19;100.00
59787;BME280;45672;51.612;5.536;2023-05-12T03:53:49;101275.94;;;11.17;100.00
59787;BME280;45672;51.612;5.536;2023-05-12T03:56:14;101280.31;;;11.18;100.00
59787;BME280;45672;51.612;5.536;2023-05-12T03:58:41;101286.03;;;11.23;100.00
59787;BME280;45672;51.612;5.536;2023-05-12T04:01:06;101278.03;;;11.23;100.00
59787;BME280;45672;51.612;5.536;2023-05-12T04:03:31;101289.97;;;11.19;100.00
59787;BME280;45672;51.612;5.536;2023-05-12T04:05:57;101277.63;;;11.18;100.00
59787;BME280;45672;51.612;5.536;2023-05-12T04:08:23;101273.03;;;11.20;100.00
59787;BME280;45672;51.612;5.536;2023-05-12T04:10:49;101273.44;;;11.15;100.00
59787;BME280;45672;51.612;5.536;2023-05-12T04:13:14;101283.38;;;11.23;100.00
59787;BME280;45672;51.612;5.536;2023-05-12T04:15:39;101280.31;;;11.18;100.00
59787;BME280;45672;51.612;5.536;2023-05-12T04:18:05;101283.94;;;11.17;100.00
59787;BME280;45672;51.612;5.536;2023-05-12T04:20:30;101272.75;;;11.13;100.00
59787;BME280;45672;51.612;5.536;2023-05-12T04:22:55;101286.75;;;11.15;100.00
59787;BME280;45672;51.612;5.536;2023-05-12T04:25:21;101282.66;;;11.21;100.00
59787;BME280;45672;51.612;5.536;2023-05-12T04:27:46;101280.00;;;11.21;100.00
59787;BME280;45672;51.612;5.536;2023-05-12T04:30:11;101286.56;;;11.27;100.00
59787;BME280;45672;51.612;5.536;2023-05-12T04:32:37;101286.03;;;11.23;100.00
59787;BME280;45672;51.612;5.536;2023-05-12T04:35:02;101278.97;;;11.32;100.00
59787;BME280;45672;51.612;5.536;2023-05-12T04:37:28;101286.41;;;11.28;100.00
59787;BME280;45672;51.612;5.536;2023-05-12T04:39:53;101286.81;;;11.33;100.00
59787;BME280;45672;51.612;5.536;2023-05-12T04:42:18;101292.00;;;11.35;100.00
59787;BME280;45672;51.612;5.536;2023-05-12T04:44:43;101279.22;;;11.38;100.00
59787;BME280;45672;51.612;5.536;2023-05-12T04:47:12;101290.41;;;11.42;100.00
59787;BME280;45672;51.612;5.536;2023-05-12T04:49:37;101284.09;;;11.43;100.00
59787;BME280;45672;51.612;5.536;2023-05-12T04:52:03;101294.28;;;11.48;100.00
59787;BME280;45672;51.612;5.536;2023-05-12T04:54:30;101292.47;;;11.48;100.00
59787;BME280;45672;51.612;5.536;2023-05-12T04:56:56;101297.50;;;11.51;100.00
59787;BME280;45672;51.612;5.536;2023-05-12T04:59:21;101300.38;;;11.58;100.00
59787;BME280;45672;51.612;5.536;2023-05-12T05:01:47;101304.91;;;11.58;100.00
59787;BME280;45672;51.612;5.536;2023-05-12T05:04:12;101301.31;;;11.67;100.00
59787;BME280;45672;51.612;5.536;2023-05-12T05:06:37;101298.66;;;11.67;100.00
59787;BME280;45672;51.612;5.536;2023-05-12T05:09:03;101297.34;;;11.71;100.00
59787;BME280;45672;51.612;5.536;2023-05-12T05:11:28;101306.72;;;11.75;100.00
59787;BME280;45672;51.612;5.536;2023-05-12T05:13:53;101311.75;;;11.78;100.00
59787;BME280;45672;51.612;5.536;2023-05-12T05:16:19;101312.84;;;11.85;100.00
59787;BME280;45672;51.612;5.536;2023-05-12T05:18:44;101311.84;;;11.86;100.00
59787;BME280;45672;51.612;5.536;2023-05-12T05:21:13;101312.69;;;11.87;100.00
59787;BME280;45672;51.612;5.536;2023-05-12T05:23:39;101313.22;;;11.90;100.00
59787;BME280;45672;51.612;5.536;2023-05-12T05:26:05;101325.97;;;11.97;100.00
59787;BME280;45672;51.612;5.536;2023-05-12T05:28:30;101321.19;;;12.00;100.00
59787;BME280;45672;51.612;5.536;2023-05-12T05:30:55;101329.72;;;12.04;100.00
59787;BME280;45672;51.612;5.536;2023-05-12T05:33:21;101327.72;;;12.06;100.00
59787;BME280;45672;51.612;5.536;2023-05-12T05:35:46;101325.44;;;12.11;100.00
59787;BME280;45672;51.612;5.536;2023-05-12T05:38:12;101325.13;;;12.14;100.00
59787;BME280;45672;51.612;5.536;2023-05-12T05:40:37;101326.66;;;12.17;100.00
59787;BME280;45672;51.612;5.536;2023-05-12T05:43:02;101342.88;;;12.23;100.00
59787;BME280;45672;51.612;5.536;2023-05-12T05:45:28;101349.28;;;12.31;100.00
59787;BME280;45672;51.612;5.536;2023-05-12T05:47:53;101343.50;;;12.35;100.00
59787;BME280;45672;51.612;5.536;2023-05-12T05:50:19;101345.00;;;12.38;100.00
59787;BME280;45672;51.612;5.536;2023-05-12T05:52:44;101349.56;;;12.46;100.00
59787;BME280;45672;51.612;5.536;2023-05-12T05:55:09;101349.31;;;12.57;100.00
59787;BME280;45672;51.612;5.536;2023-05-12T05:57:35;101352.94;;;12.74;100.00
59787;BME280;45672;51.612;5.536;2023-05-12T06:00:00;101355.34;;;12.85;100.00
59787;BME280;45672;51.612;5.536;2023-05-12T06:02:25;101359.47;;;13.06;100.00
59787;BME280;45672;51.612;5.536;2023-05-12T06:04:50;101362.19;;;13.14;100.00
59787;BME280;45672;51.612;5.536;2023-05-12T06:07:16;101368.69;;;13.38;100.00
59787;BME280;45672;51.612;5.536;2023-05-12T06:09:42;101372.44;;;13.53;100.00
59787;BME280;45672;51.612;5.536;2023-05-12T06:12:07;101372.50;;;13.78;100.00
59787;BME280;45672;51.612;5.536;2023-05-12T06:14:33;101381.75;;;14.00;100.00
59787;BME280;45672;51.612;5.536;2023-05-12T06:16:58;101386.63;;;14.13;100.00
59787;BME280;45672;51.612;5.536;2023-05-12T06:19:23;101389.78;;;14.17;100.00
59787;BME280;45672;51.612;5.536;2023-05-12T06:21:49;101392.28;;;14.18;100.00
59787;BME280;45672;51.612;5.536;2023-05-12T06:24:15;101391.28;;;14.11;100.00
59787;BME280;45672;51.612;5.536;2023-05-12T06:26:41;101399.16;;;14.04;100.00
59787;BME280;45672;51.612;5.536;2023-05-12T06:29:06;101400.66;;;13.99;100.00
59787;BME280;45672;51.612;5.536;2023-05-12T06:31:32;101405.66;;;14.02;100.00
59787;BME280;45672;51.612;5.536;2023-05-12T06:33:57;101408.50;;;14.08;100.00
59787;BME280;45672;51.612;5.536;2023-05-12T06:36:23;101406.84;;;14.07;100.00
59787;BME280;45672;51.612;5.536;2023-05-12T06:38:49;101422.56;;;14.10;100.00
59787;BME280;45672;51.612;5.536;2023-05-12T06:41:15;101409.03;;;14.12;100.00
59787;BME280;45672;51.612;5.536;2023-05-12T06:43:40;101420.91;;;14.18;100.00
59787;BME280;45672;51.612;5.536;2023-05-12T06:46:06;101411.19;;;14.17;100.00
59787;BME280;45672;51.612;5.536;2023-05-12T06:48:32;101421.72;;;14.18;100.00
59787;BME280;45672;51.612;5.536;2023-05-12T06:50:57;101428.97;;;14.26;100.00
59787;BME280;45672;51.612;5.536;2023-05-12T06:53:23;101433.13;;;14.37;100.00
59787;BME280;45672;51.612;5.536;2023-05-12T06:55:48;101430.38;;;14.71;100.00
59787;BME280;45672;51.612;5.536;2023-05-12T06:58:15;101443.91;;;14.94;100.00
59787;BME280;45672;51.612;5.536;2023-05-12T07:00:40;101436.69;;;15.03;100.00
59787;BME280;45672;51.612;5.536;2023-05-12T07:03:05;101437.16;;;15.15;100.00
59787;BME280;45672;51.612;5.536;2023-05-12T07:05:34;101446.84;;;15.32;100.00
59787;BME280;45672;51.612;5.536;2023-05-12T07:07:59;101446.16;;;15.39;100.00
59787;BME280;45672;51.612;5.536;2023-05-12T07:10:25;101439.06;;;15.54;100.00
59787;BME280;45672;51.612;5.536;2023-05-12T07:12:51;101448.78;;;15.55;100.00
59787;BME280;45672;51.612;5.536;2023-05-12T07:15:16;101457.28;;;15.67;100.00
59787;BME280;45672;51.612;5.536;2023-05-12T07:17:41;101456.25;;;15.76;100.00
59787;BME280;45672;51.612;5.536;2023-05-12T07:20:07;101449.84;;;15.94;100.00
59787;BME280;45672;51.612;5.536;2023-05-12T07:22:34;101455.56;;;16.45;100.00
59787;BME280;45672;51.612;5.536;2023-05-12T07:24:59;101456.16;;;16.79;100.00
59787;BME280;45672;51.612;5.536;2023-05-12T07:27:24;101460.63;;;17.54;100.00
59787;BME280;45672;51.612;5.536;2023-05-12T07:29:50;101465.13;;;18.35;97.88
59787;BME280;45672;51.612;5.536;2023-05-12T07:32:15;101462.50;;;18.64;94.92
59787;BME280;45672;51.612;5.536;2023-05-12T07:34:40;101468.69;;;18.86;89.72
59787;BME280;45672;51.612;5.536;2023-05-12T07:37:05;101473.47;;;18.84;91.00
59787;BME280;45672;51.612;5.536;2023-05-12T07:39:31;101475.88;;;19.28;88.61
59787;BME280;45672;51.612;5.536;2023-05-12T07:41:57;101469.19;;;19.88;83.82
59787;BME280;45672;51.612;5.536;2023-05-12T07:44:23;101475.72;;;20.13;80.43
59787;BME280;45672;51.612;5.536;2023-05-12T07:46:49;101462.25;;;19.78;83.54
59787;BME280;45672;51.612;5.536;2023-05-12T07:49:14;101482.28;;;19.21;81.07
59787;BME280;45672;51.612;5.536;2023-05-12T07:51:39;101479.78;;;18.69;80.75
59787;BME280;45672;51.612;5.536;2023-05-12T07:54:05;101468.34;;;18.46;82.99
59787;BME280;45672;51.612;5.536;2023-05-12T07:56:31;101475.75;;;19.72;79.36
59787;BME280;45672;51.612;5.536;2023-05-12T07:58:57;101476.84;;;19.84;76.80
59787;BME280;45672;51.612;5.536;2023-05-12T08:01:22;101478.03;;;19.75;78.07
59787;BME280;45672;51.612;5.536;2023-05-12T08:03:48;101480.09;;;20.28;73.53
59787;BME280;45672;51.612;5.536;2023-05-12T08:06:15;101489.59;;;20.04;76.81
59787;BME280;45672;51.612;5.536;2023-05-12T08:08:40;101491.25;;;21.07;73.24
59787;BME280;45672;51.612;5.536;2023-05-12T08:11:06;101488.69;;;21.45;69.18
59787;BME280;45672;51.612;5.536;2023-05-12T08:13:31;101491.03;;;21.22;70.49
59787;BME280;45672;51.612;5.536;2023-05-12T08:15:56;101485.19;;;22.03;66.70
59787;BME280;45672;51.612;5.536;2023-05-12T08:18:22;101492.31;;;22.43;61.66
59787;BME280;45672;51.612;5.536;2023-05-12T08:20:47;101493.22;;;22.62;61.07
59787;BME280;45672;51.612;5.536;2023-05-12T08:23:15;101495.09;;;22.62;60.15
59787;BME280;45672;51.612;5.536;2023-05-12T08:25:41;101499.50;;;21.59;60.88
59787;BME280;45672;51.612;5.536;2023-05-12T08:28:08;101507.69;;;20.98;63.55
59787;BME280;45672;51.612;5.536;2023-05-12T08:30:33;101500.00;;;20.89;61.96
59787;BME280;45672;51.612;5.536;2023-05-12T08:32:59;101503.28;;;22.10;61.14
59787;BME280;45672;51.612;5.536;2023-05-12T08:35:25;101499.19;;;22.46;57.35
59787;BME280;45672;51.612;5.536;2023-05-12T08:37:51;101511.56;;;21.76;59.74
59787;BME280;45672;51.612;5.536;2023-05-12T08:40:20;101519.53;;;20.77;61.92
59787;BME280;45672;51.612;5.536;2023-05-12T08:45:24;101507.63;;;20.52;63.77
59787;BME280;45672;51.612;5.536;2023-05-12T08:47:50;101515.81;;;21.05;63.47
59787;BME280;45672;51.612;5.536;2023-05-12T08:52:45;101514.94;;;21.65;60.57
59787;BME280;45672;51.612;5.536;2023-05-12T08:55:11;101520.88;;;21.94;58.90
59787;BME280;45672;51.612;5.536;2023-05-12T08:57:36;101514.31;;;22.60;58.12
59787;BME280;45672;51.612;5.536;2023-05-12T09:00:02;101525.78;;;22.87;56.73
59787;BME280;45672;51.612;5.536;2023-05-12T09:02:29;101521.50;;;22.41;56.59
59787;BME280;45672;51.612;5.536;2023-05-12T09:04:55;101524.38;;;22.01;57.77
59787;BME280;45672;51.612;5.536;2023-05-12T09:07:21;101523.25;;;21.50;59.53
59787;BME280;45672;51.612;5.536;2023-05-12T09:09:53;101533.28;;;21.23;62.06
59787;BME280;45672;51.612;5.536;2023-05-12T09:12:20;101528.72;;;21.10;58.98
59787;BME280;45672;51.612;5.536;2023-05-12T09:14:49;101528.53;;;20.98;59.98
59787;BME280;45672;51.612;5.536;2023-05-12T09:17:16;101535.97;;;21.36;58.63
59787;BME280;45672;51.612;5.536;2023-05-12T09:19:41;101525.94;;;22.93;55.51
59787;BME280;45672;51.612;5.536;2023-05-12T09:22:06;101540.25;;;24.43;49.25
59787;BME280;45672;51.612;5.536;2023-05-12T09:24:37;101538.19;;;25.23;48.40
59787;BME280;45672;51.612;5.536;2023-05-12T09:27:03;101531.50;;;24.41;47.18
59787;BME280;45672;51.612;5.536;2023-05-12T09:29:30;101532.44;;;23.42;50.08
59787;BME280;45672;51.612;5.536;2023-05-12T09:31:58;101522.66;;;22.59;50.47
59787;BME280;45672;51.612;5.536;2023-05-12T09:34:28;101536.75;;;22.35;54.33
59787;BME280;45672;51.612;5.536;2023-05-12T09:36:59;101525.78;;;22.17;54.51
59787;BME280;45672;51.612;5.536;2023-05-12T09:39:25;101532.22;;;22.16;51.97
59787;BME280;45672;51.612;5.536;2023-05-12T09:41:51;101529.25;;;21.79;54.19
59787;BME280;45672;51.612;5.536;2023-05-12T09:44:17;101533.25;;;21.49;54.44
59787;BME280;45672;51.612;5.536;2023-05-12T09:46:43;101533.09;;;21.31;55.37
59787;BME280;45672;51.612;5.536;2023-05-12T09:49:09;101533.72;;;21.20;56.34
59787;BME280;45672;51.612;5.536;2023-05-12T09:51:35;101536.00;;;22.15;54.67
59787;BME280;45672;51.612;5.536;2023-05-12T09:54:01;101544.69;;;24.25;48.52
59787;BME280;45672;51.612;5.536;2023-05-12T09:56:28;101547.41;;;24.86;45.17
59787;BME280;45672;51.612;5.536;2023-05-12T09:58:55;101551.94;;;25.16;44.22
59787;BME280;45672;51.612;5.536;2023-05-12T10:01:24;101570.41;;;26.38;41.78
59787;BME280;45672;51.612;5.536;2023-05-12T10:03:52;101553.25;;;26.83;41.52
59787;BME280;45672;51.612;5.536;2023-05-12T10:06:39;101554.00;;;27.12;39.94
59787;BME280;45672;51.612;5.536;2023-05-12T10:09:18;101548.38;;;26.85;40.70
59787;BME280;45672;51.612;5.536;2023-05-12T10:11:46;101564.66;;;26.51;40.39
59787;BME280;45672;51.612;5.536;2023-05-12T10:14:12;101554.81;;;26.96;38.13
59787;BME280;45672;51.612;5.536;2023-05-12T10:16:39;101566.25;;;27.27;37.92
59787;BME280;45672;51.612;5.536;2023-05-12T10:19:05;101558.41;;;26.96;40.35
59787;BME280;45672;51.612;5.536;2023-05-12T10:21:33;101568.59;;;26.72;38.46
59787;BME280;45672;51.612;5.536;2023-05-12T10:24:02;101554.97;;;26.14;39.67
59787;BME280;45672;51.612;5.536;2023-05-12T10:26:28;101565.50;;;26.11;39.25
59787;BME280;45672;51.612;5.536;2023-05-12T10:28:54;101562.34;;;25.90;40.53
59787;BME280;45672;51.612;5.536;2023-05-12T10:31:19;101555.88;;;25.68;39.87
59787;BME280;45672;51.612;5.536;2023-05-12T10:33:59;101553.81;;;24.31;44.46
59787;BME280;45672;51.612;5.536;2023-05-12T10:36:24;101562.81;;;23.32;45.09
59787;BME280;45672;51.612;5.536;2023-05-12T10:38:50;101552.09;;;22.55;46.54
59787;BME280;45672;51.612;5.536;2023-05-12T10:41:15;101554.81;;;22.03;49.34
59787;BME280;45672;51.612;5.536;2023-05-12T10:43:48;101559.41;;;21.96;50.43
59787;BME280;45672;51.612;5.536;2023-05-12T10:46:16;101551.41;;;21.42;51.29
59787;BME280;45672;51.612;5.536;2023-05-12T10:48:50;101559.94;;;21.26;52.71
59787;BME280;45672;51.612;5.536;2023-05-12T10:51:21;101571.19;;;21.29;52.34
59787;BME280;45672;51.612;5.536;2023-05-12T10:53:51;101564.09;;;21.08;52.22
59787;BME280;45672;51.612;5.536;2023-05-12T10:56:28;101560.34;;;21.03;53.21
59787;BME280;45672;51.612;5.536;2023-05-12T10:59:14;101563.44;;;20.86;53.75
59787;BME280;45672;51.612;5.536;2023-05-12T11:07:00;101562.84;;;21.17;52.20
59787;BME280;45672;51.612;5.536;2023-05-12T11:09:25;101563.25;;;20.81;52.64
59787;BME280;45672;51.612;5.536;2023-05-12T11:11:51;101578.16;;;20.57;53.71
59787;BME280;45672;51.612;5.536;2023-05-12T11:14:16;101596.41;;;20.55;55.08
59787;BME280;45672;51.612;5.536;2023-05-12T11:16:43;101576.66;;;20.47;53.99
59787;BME280;45672;51.612;5.536;2023-05-12T11:19:08;101571.69;;;20.51;55.96
59787;BME280;45672;51.612;5.536;2023-05-12T11:21:34;101581.06;;;20.62;55.22
59787;BME280;45672;51.612;5.536;2023-05-12T11:24:01;101570.84;;;20.57;53.73
59787;BME280;45672;51.612;5.536;2023-05-12T11:26:30;101586.84;;;20.45;54.32
59787;BME280;45672;51.612;5.536;2023-05-12T11:28:56;101590.91;;;20.28;55.83
59787;BME280;45672;51.612;5.536;2023-05-12T11:31:22;101575.94;;;20.25;54.23
59787;BME280;45672;51.612;5.536;2023-05-12T11:33:48;101591.88;;;20.13;54.63
59787;BME280;45672;51.612;5.536;2023-05-12T11:36:15;101586.88;;;20.10;56.60
59787;BME280;45672;51.612;5.536;2023-05-12T11:38:49;101582.78;;;20.21;54.86
59787;BME280;45672;51.612;5.536;2023-05-12T11:41:21;101587.84;;;19.96;51.40
59787;BME280;45672;51.612;5.536;2023-05-12T11:43:46;101607.59;;;19.68;51.21
59787;BME280;45672;51.612;5.536;2023-05-12T11:46:25;101596.09;;;19.59;53.52
59787;BME280;45672;51.612;5.536;2023-05-12T11:48:57;101607.97;;;19.65;53.65
59787;BME280;45672;51.612;5.536;2023-05-12T11:51:23;101600.72;;;19.66;53.35
59787;BME280;45672;51.612;5.536;2023-05-12T11:53:50;101608.78;;;19.59;53.99
59787;BME280;45672;51.612;5.536;2023-05-12T11:56:22;101610.13;;;19.48;54.24
59787;BME280;45672;51.612;5.536;2023-05-12T11:58:56;101609.50;;;19.46;54.72
59787;BME280;45672;51.612;5.536;2023-05-12T12:01:22;101619.56;;;19.59;52.87
59787;BME280;45672;51.612;5.536;2023-05-12T12:03:49;101610.47;;;19.67;52.46
59787;BME280;45672;51.612;5.536;2023-05-12T12:06:15;101610.28;;;19.68;54.48
59787;BME280;45672;51.612;5.536;2023-05-12T12:08:55;101606.50;;;19.91;53.80
59787;BME280;45672;51.612;5.536;2023-05-12T12:11:23;101602.00;;;19.98;53.57
59787;BME280;45672;51.612;5.536;2023-05-12T12:13:52;101614.06;;;20.02;53.55
59787;BME280;45672;51.612;5.536;2023-05-12T12:18:48;101610.47;;;20.78;54.35
59787;BME280;45672;51.612;5.536;2023-05-12T12:21:13;101610.53;;;21.25;52.56
59787;BME280;45672;51.612;5.536;2023-05-12T12:23:38;101619.31;;;21.61;51.05
59787;BME280;45672;51.612;5.536;2023-05-12T12:26:04;101611.38;;;21.79;50.64
59787;BME280;45672;51.612;5.536;2023-05-12T12:28:29;101617.34;;;22.08;50.20
59787;BME280;45672;51.612;5.536;2023-05-12T12:30:55;101628.56;;;22.18;48.60
59787;BME280;45672;51.612;5.536;2023-05-12T12:33:20;101613.75;;;22.21;48.20
59787;BME280;45672;51.612;5.536;2023-05-12T12:35:46;101626.00;;;22.37;48.70
59787;BME280;45672;51.612;5.536;2023-05-12T12:38:11;101623.34;;;22.17;49.49
59787;BME280;45672;51.612;5.536;2023-05-12T12:40:37;101616.78;;;21.79;47.91
59787;BME280;45672;51.612;5.536;2023-05-12T12:43:02;101623.22;;;21.45;49.08
59787;BME280;45672;51.612;5.536;2023-05-12T12:45:28;101619.69;;;21.51;49.76
59787;BME280;45672;51.612;5.536;2023-05-12T12:47:53;101622.81;;;21.41;50.31
59787;BME280;45672;51.612;5.536;2023-05-12T12:50:19;101622.19;;;21.26;50.41
59787;BME280;45672;51.612;5.536;2023-05-12T12:52:45;101627.19;;;21.15;50.43